KLFK/LFK METAR and TAF weather

Enter ICAO airport designator
Station Type Date Time Source
KLFK METAR 2022/11/30 17:53 UTC NOAA

KLFK 301753Z AUTO 04010G18KT 010V070 10SM CLR 13/M01 A3035 RMK AO2 SLP276 T01281006 10128 20061 50010


Station Type Date Time Source
KLFK Decoded METAR 2022/11/30 17:53 UTC NOAA

LUFKIN ANGELINA COUNTY AIRPORT , TX, United States (KLFK) 31-14N 94-45W 88M
Nov 30, 2022 - 12:53 PM EST / 2022.11.30 1753 UTC
Wind: from the NE (040 degrees) at 12 MPH (10 KT) gusting to 21 MPH (18 KT) (direction variable):0
Visibility: 10 mile(s):0
Sky conditions: clear
Temperature: 55.0 F (12.8 C)
Dew Point: 30.9 F (-0.6 C)
Relative Humidity: 39%
Pressure (altimeter): 30.35 in. Hg (1027 hPa)
Pressure tendency: 0.03 inches (1.0 hPa) higher than three hours ago
ob: KLFK 301753Z AUTO 04010G18KT 010V070 10SM CLR 13/M01 A3035 RMK AO2 SLP276 T01281006 10128 20061 50010
cycle: 18

Station Type Date Time Source
KLFK TAF 2022/11/30 18:42 UTC NOAA

TAF KLFK 301740Z 3018/0118 02010G15KT P6SM SKC
FM010000 04005KT P6SM SKC
FM010600 07004KT P6SM FEW250
FM011500 10008KT P6SM SCT250

Example: see airport list